^^
Station Historical Data
Daily Summary for October 29, 2017 Units:  Metric    English   Both
« Previous Day
Next Day »
Daily Weekly Monthly Yearly Custom
  High: Low: Average:
Temperature: 34.8 °C 21.4 °C 28.6 °C
Dew Point: 13.6 °C 7.4 °C 10.9 °C
Humidity: 57% 19% 35%
Wind Speed: 38.5km/h 0km/h 15.1km/h
Wind Gust: 59.5km/h - -
Wind- - South
Pressure: 1011.7 hPa 1003.9 hPa -
Precipitation: 0.76 mm    
Historical Graphs
 
 
Tabular Data for October 29, 2017
Time Temperature Dew Point Pressure Wind Wind Speed Wind Gust Humidity Rainfall Rate (Hourly) solar Conditions
09:40 26.3 °C 11.6 °C 1009.4 hPa NNE 24.1 km/h 33.8 km/h 40% 0 mm 522.0 W/m2
10:10 26.8 °C 11.3 °C 1009 hPa North 24.1 km/h 38.6 km/h 38% 0 mm 601.0 W/m2
10:23 27.2 °C 11.2 °C 1009 hPa North 22.7 km/h 37 km/h 37% 0 mm 633.0 W/m2
10:44 27.9 °C 11.4 °C 1008.7 hPa NNE 38.5 km/h 38.6 km/h 36% 0 mm 677.0 W/m2
10:54 28.1 °C 11.6 °C 1008.7 hPa NNE 11.1 km/h 35.4 km/h 36% 0 mm 696.0 W/m2
11:03 28.6 °C 11.6 °C 1008.4 hPa NNW 11.1 km/h 33.8 km/h 35% 0 mm 714.0 W/m2
11:14 29 °C 11.5 °C 1008 hPa North 20.9 km/h 33.8 km/h 34% 0 mm 729.0 W/m2
11:23 29.2 °C 11.3 °C 1008 hPa NNE 17.7 km/h 30.6 km/h 33% 0 mm 745.0 W/m2
11:34 29.8 °C 11.3 °C 1008 hPa NE 20.9 km/h 27.4 km/h 32% 0 mm 756.0 W/m2
11:45 29.9 °C 11.4 °C 1007.3 hPa NNE 20.9 km/h 29 km/h 32% 0 mm 770.0 W/m2
11:53 30.8 °C 11.2 °C 1007.7 hPa NNE 20.9 km/h 41.8 km/h 30% 0 mm 779.0 W/m2
12:04 31 °C 11.4 °C 1007 hPa NNE 13 km/h 33.8 km/h 30% 0 mm 789.0 W/m2
12:13 31.3 °C 11.7 °C 1007 hPa North 19.5 km/h 33.8 km/h 30% 0 mm 795.0 W/m2
12:21 31.3 °C 11.1 °C 1007 hPa North 17.7 km/h 22.5 km/h 29% 0 mm 798.0 W/m2
12:30 31.7 °C 11.5 °C 1007 hPa North 24.1 km/h 41.8 km/h 29% 0 mm 800.0 W/m2
12:35 31.9 °C 11.1 °C 1007 hPa NNW 19.5 km/h 27.4 km/h 28% 0 mm 803.0 W/m2
12:41 32.2 °C 10.8 °C 1006.7 hPa NNW 19.5 km/h 30.6 km/h 27% 0 mm 805.0 W/m2
12:57 32.3 °C 10.9 °C 1006.3 hPa North 28.8 km/h 59.5 km/h 27% 0 mm 803.0 W/m2
13:06 32.5 °C 10.5 °C 1006.3 hPa North 20.9 km/h 29 km/h 26% 0 mm 800.0 W/m2
13:11 32.7 °C 10.7 °C 1006.3 hPa North 20.9 km/h 38.6 km/h 26% 0 mm 800.0 W/m2
13:21 33.1 °C 11 °C 1006.3 hPa North 20.9 km/h 33.8 km/h 26% 0 mm 793.0 W/m2
13:26 33.7 °C 10.9 °C 1006 hPa North 11.1 km/h 22.5 km/h 25% 0 mm 788.0 W/m2
13:36 34 °C 9.9 °C 1006 hPa NNE 16.3 km/h 29 km/h 23% 0 mm 782.0 W/m2
13:43 33.8 °C 10.4 °C 1006 hPa NE 17.7 km/h 24.1 km/h 24% 0 mm 775.0 W/m2
13:49 34 °C 9.9 °C 1006 hPa North 16.3 km/h 27.4 km/h 23% 0 mm 772.0 W/m2
14:01 33.8 °C 9.8 °C 1005.6 hPa NNW 3.2 km/h 27.4 km/h 23% 0 mm 759.0 W/m2
14:16 34.3 °C 8.8 °C 1005.3 hPa NNE 13 km/h 24.1 km/h 21% 0 mm 749.0 W/m2
14:26 34.6 °C 9.1 °C 1005 hPa North 20.9 km/h 29 km/h 21% 0 mm 775.0 W/m2
14:41 34.8 °C 9.2 °C 1004.6 hPa NNW 13 km/h 29 km/h 21% 0 mm 645.0 W/m2
15:27 34.3 °C 7.4 °C 1003.9 hPa North 14.3 km/h 19.3 km/h 19% 0 mm 188.0 W/m2
16:25 33.8 °C 7.7 °C 1004.3 hPa NNW 25.9 km/h 25.9 km/h 20% 0 mm 39.0 W/m2
16:34 33.7 °C 7.6 °C 1004.3 hPa NNW 11.1 km/h 19.3 km/h 20% 0 mm 33.0 W/m2
16:44 33.7 °C 7.6 °C 1004.6 hPa WNW 28.8 km/h 33.8 km/h 20% 0 mm 28.0 W/m2
16:52 30.4 °C 8.2 °C 1005.6 hPa WNW 35.2 km/h 48.3 km/h 25% 0 mm 19.0 W/m2
16:58 29.8 °C 8.2 °C 1005.6 hPa West 38.5 km/h 53.1 km/h 26% 0 mm 18.0 W/m2
17:05 29.4 °C 8.4 °C 1005.6 hPa WNW 38.5 km/h 51.5 km/h 27% 0 mm 14.0 W/m2
17:32 28.6 °C 8.3 °C 1005.6 hPa West 35.2 km/h 46.7 km/h 28% 0 mm 9.0 W/m2
18:05 27.8 °C 8.6 °C 1006.7 hPa West 27.4 km/h 43.5 km/h 30% 0 mm 0.0 W/m2
18:52 26.6 °C 10.7 °C 1009 hPa WSW 17.7 km/h 22.5 km/h 37% 0.51 mm 0.0 W/m2
19:23 25.7 °C 12.9 °C 1010.7 hPa WNW 4.7 km/h 11.3 km/h 45% 0 mm 0.0 W/m2
19:54 24.4 °C 11.7 °C 1008.4 hPa NE 20.9 km/h 25.7 km/h 45% 0.51 mm 0.0 W/m2
20:09 25.2 °C 11.4 °C 1007.3 hPa NE 6.4 km/h 20.9 km/h 42% 0.51 mm 0.0 W/m2
20:23 24.7 °C 12 °C 1007.7 hPa NNW 11.1 km/h 19.3 km/h 45% 0.51 mm 0.0 W/m2
20:48 25.1 °C 11.3 °C 1008.4 hPa North 6.4 km/h 17.7 km/h 42% 0 mm 0.0 W/m2
20:57 24.7 °C 12 °C 1008.4 hPa NNE 7.9 km/h 11.3 km/h 45% 0 mm 0.0 W/m2
21:10 24.1 °C 12.7 °C 1008.4 hPa Calm     49% 0 mm 0.0 W/m2
21:22 23.8 °C 13.6 °C 1008.7 hPa Calm     53% 0 mm 0.0 W/m2
21:32 23.6 °C 12.6 °C 1009 hPa Calm     50% 0 mm 0.0 W/m2
21:41 23.6 °C 13.2 °C 1009.4 hPa Calm     52% 0 mm 0.0 W/m2
21:50 23.5 °C 12.2 °C 1009.7 hPa North 14.3 km/h 20.9 km/h 49% 0 mm 0.0 W/m2
22:00 24.1 °C 11.8 °C 1010 hPa NNW 7.9 km/h 19.3 km/h 46% 0 mm 0.0 W/m2
22:10 24.2 °C 11.8 °C 1010.4 hPa NNW 9.7 km/h 17.7 km/h 46% 0 mm 0.0 W/m2
22:16 24.2 °C 11.8 °C 1010.7 hPa Calm     46% 0 mm 0.0 W/m2
22:23 24.3 °C 11.9 °C 1011.1 hPa Calm     46% 0 mm 0.0 W/m2
22:29 24.2 °C 12.8 °C 1011.1 hPa Calm     49% 0 mm 0.0 W/m2
22:36 23.6 °C 11.9 °C 1011.4 hPa Calm     48% 0 mm 0.0 W/m2
22:54 23.3 °C 12 °C 1011.4 hPa Calm     49% 0 mm 0.0 W/m2
23:33 22.3 °C 11.4 °C 1011.4 hPa Calm     50% 0 mm 0.0 W/m2
23:47 22.2 °C 12.4 °C 1011.7 hPa Calm     54% 0 mm 0.0 W/m2
23:55 21.4 °C 12.5 °C 1011.7 hPa Calm     57% 0 mm 0.0 W/m2
Canyon Roadhouse, Fishriver Canyon, Namibia
Compliments of Weather Underground - 2 mb